Time;durP1;ratioP1;P1;durP2;ratioP2;P2;SDS_P1;SDS_P2;PMS_P1;PMS_P2;Temp;Humidity;BMP_temperature;BMP_pressure;BME280_temperature;BME280_humidity;BME280_pressure;Samples;Min_cycle;Max_cycle;Signal;HPM_P1;HPM_P2
2023/08/31 00:02:07;;;;;;;22.40;19.10;;;;;;;14.96;100.00;95908.23;108887;1270;22558;-82
2023/08/31 00:04:40;;;;;;;24.80;19.90;;;;;;;14.93;100.00;95911.91;108873;1271;22960;-83
2023/08/31 00:07:11;;;;;;;20.30;17.90;;;;;;;14.94;100.00;95912.10;108846;1262;22520;-83
2023/08/31 00:09:42;;;;;;;21.40;17.50;;;;;;;14.93;100.00;95913.14;108849;1270;24266;-83
2023/08/31 00:12:12;;;;;;;21.60;18.10;;;;;;;14.93;100.00;95908.30;108896;1271;22521;-83
2023/08/31 00:14:43;;;;;;;20.30;17.40;;;;;;;14.88;100.00;95909.35;108849;1271;22541;-83
2023/08/31 00:17:14;;;;;;;22.50;19.00;;;;;;;14.83;100.00;95909.33;108948;1270;25386;-82
2023/08/31 00:19:45;;;;;;;26.60;20.30;;;;;;;14.86;100.00;95911.47;108828;1271;22814;-82
2023/08/31 00:22:16;;;;;;;23.40;19.00;;;;;;;14.91;100.00;95912.41;108855;1269;22511;-82
2023/08/31 00:24:47;;;;;;;21.10;18.00;;;;;;;14.88;100.00;95918.04;108889;1271;22543;-82
2023/08/31 00:27:18;;;;;;;21.00;17.70;;;;;;;14.83;100.00;95916.86;108898;1271;22524;-82
2023/08/31 00:29:52;;;;;;;21.80;18.00;;;;;;;14.79;100.00;95915.13;108818;1271;26517;-82
2023/08/31 00:32:26;;;;;;;22.30;18.50;;;;;;;14.77;100.00;95914.66;108894;1270;22532;-83
2023/08/31 00:34:57;;;;;;;22.20;18.80;;;;;;;14.73;100.00;95913.13;108833;1263;24215;-83
2023/08/31 00:37:28;;;;;;;22.80;19.70;;;;;;;14.73;100.00;95912.66;108903;1271;22920;-82
2023/08/31 00:39:59;;;;;;;22.20;18.10;;;;;;;14.73;100.00;95912.82;108883;1264;22526;-83
2023/08/31 00:42:31;;;;;;;24.30;19.50;;;;;;;14.73;100.00;95912.82;108853;1271;22624;-82
2023/08/31 00:45:02;;;;;;;21.50;19.20;;;;;;;14.75;100.00;95913.80;108875;1270;22537;-82
2023/08/31 00:47:35;;;;;;;23.40;18.80;;;;;;;14.76;100.00;95910.34;108859;1267;24827;-82
2023/08/31 00:50:10;;;;;;;23.10;19.90;;;;;;;14.77;100.00;95911.14;108917;1270;22543;-83
2023/08/31 00:52:41;;;;;;;23.20;18.10;;;;;;;14.80;100.00;95914.87;108920;1271;22527;-82
2023/08/31 00:55:13;;;;;;;20.10;16.40;;;;;;;14.87;100.00;95909.30;108855;1271;23464;-83
2023/08/31 00:57:44;;;;;;;24.00;18.20;;;;;;;14.92;100.00;95909.27;108876;1271;22518;-82
2023/08/31 01:00:17;;;;;;;21.40;17.60;;;;;;;14.93;100.00;95908.23;108893;1271;22534;-83
2023/08/31 01:03:03;;;;;;;20.90;17.70;;;;;;;14.95;100.00;95909.71;108890;1271;22601;-83
2023/08/31 01:05:47;;;;;;;20.50;16.40;;;;;;;15.00;100.00;95910.86;108882;1257;24201;-83
2023/08/31 01:08:38;;;;;;;21.20;17.20;;;;;;;14.95;100.00;95908.79;108854;1270;25442;-82
2023/08/31 01:11:18;;;;;;;19.70;16.50;;;;;;;14.94;100.00;95910.59;108876;1271;25360;-83
2023/08/31 01:13:59;;;;;;;19.20;16.30;;;;;;;14.98;100.00;95907.45;108903;1271;22533;-82
2023/08/31 01:16:33;;;;;;;18.90;15.20;;;;;;;15.01;100.00;95909.00;108872;1271;24200;-83
2023/08/31 01:19:18;;;;;;;18.40;16.00;;;;;;;15.04;100.00;95913.40;108826;1269;22627;-83
2023/08/31 01:21:51;;;;;;;21.20;16.40;;;;;;;15.06;100.00;95914.53;108935;1271;24241;-83
2023/08/31 01:24:23;;;;;;;19.90;16.80;;;;;;;15.07;100.00;95911.40;108872;1269;23296;-83
2023/08/31 01:26:56;;;;;;;19.30;15.90;;;;;;;15.09;100.00;95918.20;108890;1271;22518;-82
2023/08/31 01:29:30;;;;;;;20.20;17.20;;;;;;;15.12;100.00;95915.16;108871;1271;22514;-83
2023/08/31 01:32:01;;;;;;;19.10;16.60;;;;;;;15.13;100.00;95916.74;108868;1271;22525;-83
2023/08/31 01:34:33;;;;;;;20.40;16.90;;;;;;;15.07;100.00;95916.48;108936;1263;24345;-83
2023/08/31 01:37:13;;;;;;;21.50;16.80;;;;;;;15.00;100.00;95915.82;108903;1269;22534;-83
2023/08/31 01:39:47;;;;;;;;;;;;;;;15.00;100.00;95914.75;108913;1271;22531;-83
2023/08/31 01:42:21;;;;;;;19.80;16.60;;;;;;;14.95;100.00;95916.70;108816;1264;24225;-83
2023/08/31 01:44:54;;;;;;;18.40;15.00;;;;;;;14.97;100.00;95914.19;108852;1266;22533;-83
2023/08/31 01:47:26;;;;;;;17.00;14.70;;;;;;;14.98;100.00;95914.23;108838;1271;22514;-83
2023/08/31 01:49:57;;;;;;;17.00;14.00;;;;;;;14.96;100.00;95914.31;108894;1270;25159;-83
2023/08/31 01:52:31;;;;;;;15.90;13.60;;;;;;;14.93;100.00;95917.04;108906;1270;22510;-83
2023/08/31 01:55:04;;;;;;;14.50;12.30;;;;;;;14.87;100.00;95924.34;108864;1271;22518;-83
2023/08/31 01:57:36;;;;;;;15.00;12.80;;;;;;;14.76;100.00;95923.50;108851;1269;22560;-83
2023/08/31 02:00:09;;;;;;;14.60;12.40;;;;;;;14.73;100.00;95926.52;108877;1271;22514;-83
2023/08/31 02:02:40;;;;;;;14.90;11.90;;;;;;;14.67;100.00;95931.94;108873;1271;22572;-83
2023/08/31 02:05:12;;;;;;;15.40;12.80;;;;;;;14.62;100.00;95936.80;108910;1271;22514;-83
2023/08/31 02:07:43;;;;;;;16.60;14.00;;;;;;;14.56;100.00;95938.73;108879;1263;22563;-82
2023/08/31 02:10:14;;;;;;;16.90;13.40;;;;;;;14.52;100.00;95943.98;108844;1268;22574;-83
2023/08/31 02:12:45;;;;;;;16.00;13.00;;;;;;;14.48;100.00;95948.38;108890;1271;22562;-83
2023/08/31 02:15:16;;;;;;;13.10;11.30;;;;;;;14.47;100.00;95944.08;108942;1271;22534;-83
2023/08/31 02:17:48;;;;;;;13.30;11.70;;;;;;;14.46;100.00;95943.20;108917;1271;22546;-82
2023/08/31 02:20:20;;;;;;;16.00;12.90;;;;;;;14.46;100.00;95946.91;108905;1269;22534;-82
2023/08/31 02:22:55;;;;;;;14.30;11.50;;;;;;;14.44;100.00;95950.48;108940;1264;22528;-82
2023/08/31 02:25:29;;;;;;;12.20;10.30;;;;;;;14.44;100.00;95948.80;108910;1270;24378;-82
2023/08/31 02:28:00;;;;;;;15.30;10.50;;;;;;;14.50;100.00;95953.56;108891;1271;22625;-82
2023/08/31 02:30:34;;;;;;;13.10;10.40;;;;;;;14.55;100.00;95951.19;108883;1264;22538;-83
2023/08/31 02:33:05;;;;;;;14.40;11.80;;;;;;;14.59;100.00;95952.42;108946;1271;22599;-82
2023/08/31 02:35:36;;;;;;;15.40;11.70;;;;;;;14.62;100.00;95953.39;108937;1259;23638;-82
2023/08/31 02:38:07;;;;;;;13.30;11.60;;;;;;;14.67;100.00;95953.04;108893;1271;25401;-82
2023/08/31 02:40:38;;;;;;;13.90;10.50;;;;;;;14.70;100.00;95957.45;108886;1264;22542;-82
2023/08/31 02:43:09;;;;;;;13.90;10.50;;;;;;;14.72;100.00;95956.45;108896;1271;22753;-82
2023/08/31 02:45:40;;;;;;;12.80;9.70;;;;;;;14.73;100.00;95959.08;108908;1271;25048;-82
2023/08/31 02:48:12;;;;;;;10.60;9.20;;;;;;;14.69;100.00;95960.92;108845;1271;26065;-82
2023/08/31 02:50:43;;;;;;;11.20;9.50;;;;;;;14.68;100.00;95962.23;108890;1271;22545;-82
2023/08/31 02:53:15;;;;;;;10.50;9.30;;;;;;;14.68;100.00;95960.50;108864;1267;22525;-82
2023/08/31 02:55:46;;;;;;;12.70;10.20;;;;;;;14.69;100.00;95962.27;108882;1271;22547;-82
2023/08/31 02:58:17;;;;;;;12.60;9.20;;;;;;;14.70;100.00;95967.48;108813;1264;22524;-82
2023/08/31 03:00:48;;;;;;;13.10;8.80;;;;;;;14.69;100.00;95969.23;108906;1271;22643;-82
2023/08/31 03:03:22;;;;;;;11.70;8.80;;;;;;;14.70;100.00;95967.58;108870;1270;22561;-82
2023/08/31 03:05:57;;;;;;;14.00;10.10;;;;;;;14.73;100.00;95964.42;108914;1271;22604;-82
2023/08/31 03:08:28;;;;;;;11.90;9.90;;;;;;;14.76;100.00;95965.81;108859;1270;22591;-83
2023/08/31 03:11:00;;;;;;;12.40;10.10;;;;;;;14.77;100.00;95968.71;108888;1271;22517;-82
2023/08/31 03:13:31;;;;;;;13.00;9.90;;;;;;;14.78;100.00;95970.82;108911;1270;22522;-82
2023/08/31 03:16:03;;;;;;;14.20;10.80;;;;;;;14.81;100.00;95971.62;108901;1271;22518;-82
2023/08/31 03:18:34;;;;;;;11.50;9.70;;;;;;;14.83;100.00;95974.91;108885;1263;24034;-82
2023/08/31 03:21:05;;;;;;;13.00;10.30;;;;;;;14.79;100.00;95974.80;108957;1271;22571;-82
2023/08/31 03:23:36;;;;;;;13.30;9.60;;;;;;;14.71;100.00;95973.63;108915;1270;22534;-82
2023/08/31 03:26:10;;;;;;;12.50;10.50;;;;;;;14.68;100.00;95972.52;108882;1271;22525;-82
2023/08/31 03:28:41;;;;;;;11.80;9.70;;;;;;;14.64;100.00;95971.77;108865;1270;23081;-82
2023/08/31 03:31:13;;;;;;;15.30;11.00;;;;;;;14.58;100.00;95969.53;108840;1271;22659;-82
2023/08/31 03:33:44;;;;;;;12.40;10.30;;;;;;;14.55;100.00;95968.48;108892;1271;23972;-82
2023/08/31 03:36:15;;;;;;;12.30;11.00;;;;;;;14.51;100.00;95969.72;108917;1270;22556;-82
2023/08/31 03:38:46;;;;;;;11.30;9.50;;;;;;;14.46;100.00;95966.45;108838;1271;22664;-82
2023/08/31 03:41:22;;;;;;;11.70;9.70;;;;;;;14.49;100.00;95970.98;108885;1264;24282;-82
2023/08/31 03:43:53;;;;;;;15.60;12.10;;;;;;;14.56;100.00;95972.34;108927;1271;24200;-82
2023/08/31 03:46:28;;;;;;;15.40;11.90;;;;;;;14.59;100.00;95976.55;108936;1271;22627;-82
2023/08/31 03:49:00;;;;;;;15.30;11.80;;;;;;;14.61;100.00;95979.85;108831;1271;22553;-82
2023/08/31 03:51:34;;;;;;;14.80;10.70;;;;;;;14.62;100.00;95983.02;108956;1270;22525;-82
2023/08/31 03:54:07;;;;;;;13.30;11.10;;;;;;;14.64;100.00;95980.13;108915;1271;23140;-82
2023/08/31 03:56:40;;;;;;;14.80;12.20;;;;;;;14.65;100.00;95980.50;108919;1269;24172;-82
2023/08/31 03:59:13;;;;;;;13.50;12.10;;;;;;;14.64;100.00;95983.05;108779;1266;26418;-82
2023/08/31 04:01:45;;;;;;;15.60;12.00;;;;;;;14.61;100.00;95990.89;108913;1270;25477;-82
2023/08/31 04:04:20;;;;;;;13.20;11.80;;;;;;;14.59;100.00;95994.95;108935;1270;22571;-82
2023/08/31 04:06:51;;;;;;;13.40;10.50;;;;;;;14.52;100.00;95997.80;108897;1271;22519;-82
2023/08/31 04:09:23;;;;;;;15.00;11.70;;;;;;;14.45;100.00;96001.96;108878;1271;22538;-82
2023/08/31 04:11:54;;;;;;;13.30;10.80;;;;;;;14.38;100.00;96003.48;108947;1271;22637;-82
2023/08/31 04:14:27;;;;;;;13.50;11.40;;;;;;;14.32;100.00;96006.64;108933;1266;22689;-82
2023/08/31 04:16:58;;;;;;;14.40;12.20;;;;;;;14.26;100.00;96011.14;108887;1264;22508;-82
2023/08/31 04:19:30;;;;;;;15.20;13.40;;;;;;;14.23;100.00;96008.75;108838;1263;22521;-82
2023/08/31 04:22:01;;;;;;;15.90;12.90;;;;;;;14.22;100.00;96010.34;108969;1263;22527;-82
2023/08/31 04:24:36;;;;;;;15.50;13.60;;;;;;;14.20;100.00;96015.35;108861;1247;22520;-82
2023/08/31 04:27:08;;;;;;;16.20;14.40;;;;;;;14.19;100.00;96016.47;108900;1270;25514;-82
2023/08/31 04:29:40;;;;;;;17.90;15.00;;;;;;;14.17;100.00;96019.05;108851;1266;30499;-82
2023/08/31 04:32:12;;;;;;;16.20;14.50;;;;;;;14.18;100.00;96019.15;108923;1269;22514;-82
2023/08/31 04:34:43;;;;;;;16.10;13.60;;;;;;;14.20;100.00;96020.90;108895;1263;22557;-82
2023/08/31 04:37:14;;;;;;;16.70;14.40;;;;;;;14.19;100.00;96020.36;108891;1269;22519;-82
2023/08/31 04:39:46;;;;;;;16.30;13.80;;;;;;;14.22;100.00;96023.98;108950;1264;22585;-81
2023/08/31 04:42:18;;;;;;;17.20;15.10;;;;;;;14.23;100.00;96028.16;108973;1271;22621;-82
2023/08/31 04:44:52;;;;;;;18.70;15.00;;;;;;;14.29;100.00;96032.29;108995;1263;22532;-82
2023/08/31 04:47:28;;;;;;;15.50;13.70;;;;;;;14.36;100.00;96038.63;108894;1270;22642;-82
2023/08/31 04:50:00;;;;;;;16.50;13.50;;;;;;;14.43;100.00;96042.73;108946;1247;22523;-82
2023/08/31 04:52:32;;;;;;;15.10;13.50;;;;;;;14.47;100.00;96042.23;108926;1268;22516;-81
2023/08/31 04:55:08;;;;;;;17.80;13.50;;;;;;;14.50;100.00;96041.45;108968;1263;23196;-82
2023/08/31 04:57:39;;;;;;;15.80;14.10;;;;;;;14.52;100.00;96043.52;108990;1269;22590;-82
2023/08/31 05:00:12;;;;;;;16.20;13.60;;;;;;;14.54;100.00;96045.43;108934;1270;22527;-82
2023/08/31 05:02:44;;;;;;;16.00;14.00;;;;;;;14.52;100.00;96048.80;108945;1268;22504;-82
2023/08/31 05:05:15;;;;;;;18.20;14.20;;;;;;;14.54;100.00;96045.21;108953;1270;22507;-82
2023/08/31 05:07:46;;;;;;;15.50;13.90;;;;;;;14.54;100.00;96053.43;108884;1271;22994;-81
2023/08/31 05:10:20;;;;;;;16.40;14.20;;;;;;;14.57;100.00;96055.05;108939;1263;25246;-81
2023/08/31 05:12:53;;;;;;;15.10;13.50;;;;;;;14.61;100.00;96050.52;108903;1271;24234;-82
2023/08/31 05:15:27;;;;;;;15.60;14.00;;;;;;;14.64;100.00;96054.29;108918;1268;25261;-82
2023/08/31 05:17:58;;;;;;;18.90;14.30;;;;;;;14.65;100.00;96057.94;108906;1269;24348;-82
2023/08/31 05:20:29;;;;;;;16.30;14.10;;;;;;;14.66;100.00;96061.55;108913;1271;26436;-82
2023/08/31 05:23:01;;;;;;;15.40;12.90;;;;;;;14.67;100.00;96066.19;108871;1265;22534;-82
2023/08/31 05:25:32;;;;;;;15.90;13.70;;;;;;;14.68;100.00;96065.59;108910;1263;25420;-82
2023/08/31 05:28:03;;;;;;;15.10;13.50;;;;;;;14.69;100.00;96067.09;108925;1268;23545;-81
2023/08/31 05:30:35;;;;;;;16.50;14.20;;;;;;;14.72;100.00;96070.28;108850;1263;25297;-82
2023/08/31 05:33:07;;;;;;;16.70;14.60;;;;;;;14.76;100.00;96072.27;108939;1269;25268;-82
2023/08/31 05:35:40;;;;;;;16.10;13.60;;;;;;;14.78;100.00;96073.09;108913;1271;22515;-81
2023/08/31 05:38:11;;;;;;;17.70;15.00;;;;;;;14.79;100.00;96073.25;108929;1271;23156;-81
2023/08/31 05:40:45;;;;;;;14.80;13.10;;;;;;;14.83;100.00;96073.17;108900;1266;22513;-81
2023/08/31 05:43:16;;;;;;;16.90;15.10;;;;;;;14.84;100.00;96071.29;108904;1266;22529;-81
2023/08/31 05:45:50;;;;;;;14.30;12.80;;;;;;;14.85;100.00;96076.43;108931;1271;22507;-80
2023/08/31 05:48:23;;;;;;;14.50;12.50;;;;;;;14.86;100.00;96081.36;108810;1269;23499;-80
2023/08/31 05:51:00;;;;;;;14.60;12.40;;;;;;;14.87;100.00;96081.77;108914;1265;22512;-81
2023/08/31 05:53:31;;;;;;;14.70;13.00;;;;;;;14.89;100.00;96079.27;108945;1271;22505;-81
2023/08/31 05:56:04;;;;;;;15.00;13.50;;;;;;;14.91;100.00;96083.41;108920;1271;24188;-82
2023/08/31 05:58:37;;;;;;;15.30;13.60;;;;;;;14.93;100.00;96086.21;108879;1263;25028;-82
2023/08/31 06:01:08;;;;;;;14.40;12.50;;;;;;;14.93;100.00;96082.89;108873;1271;24252;-82
2023/08/31 06:03:39;;;;;;;13.70;12.30;;;;;;;14.93;100.00;96085.49;108949;1269;25478;-82
2023/08/31 06:06:10;;;;;;;13.70;12.30;;;;;;;14.95;100.00;96086.24;108901;1263;22519;-82
2023/08/31 06:08:43;;;;;;;14.00;12.00;;;;;;;14.96;100.00;96086.30;108973;1266;23790;-82
2023/08/31 06:11:14;;;;;;;15.10;11.90;;;;;;;14.99;100.00;96084.42;109053;1269;22532;-83
2023/08/31 06:13:45;;;;;;;12.50;10.70;;;;;;;15.03;100.00;96083.34;108969;1271;24462;-83
2023/08/31 06:16:16;;;;;;;11.50;10.10;;;;;;;15.05;100.00;96082.24;109029;1265;22507;-82
2023/08/31 06:18:52;;;;;;;10.30;9.10;;;;;;;15.09;100.00;96077.84;109001;1270;24212;-82
2023/08/31 06:21:25;;;;;;;10.30;9.30;;;;;;;15.12;100.00;96079.46;109033;1253;26574;-83
2023/08/31 06:23:56;;;;;;;10.20;9.10;;;;;;;15.13;100.00;96086.83;109039;1271;24223;-83
2023/08/31 06:26:30;;;;;;;9.40;8.40;;;;;;;15.17;100.00;96079.74;108900;1271;24224;-83
2023/08/31 06:29:03;;;;;;;9.50;8.30;;;;;;;15.22;100.00;96085.85;108724;1272;22573;-83
2023/08/31 06:31:34;;;;;;;9.10;7.60;;;;;;;15.27;100.00;96087.63;108762;1269;22739;-83
2023/08/31 06:34:05;;;;;;;8.40;7.50;;;;;;;15.34;100.00;96088.45;108703;1271;22534;-83
2023/08/31 06:36:36;;;;;;;9.40;6.80;;;;;;;15.40;100.00;96088.98;108736;1272;22540;-83
2023/08/31 06:39:08;;;;;;;8.20;6.70;;;;;;;15.41;100.00;96092.09;108637;1269;27039;-82
2023/08/31 06:41:39;;;;;;;8.90;7.70;;;;;;;15.45;100.00;96091.31;108721;1272;22527;-82
2023/08/31 06:44:10;;;;;;;10.30;6.50;;;;;;;15.49;100.00;96095.37;108696;1272;22541;-83
2023/08/31 06:46:41;;;;;;;7.00;6.30;;;;;;;15.52;100.00;96098.84;108865;1271;22529;-81
2023/08/31 06:49:12;;;;;;;7.30;6.30;;;;;;;15.57;100.00;96098.56;108903;1271;22942;-81
2023/08/31 06:51:51;;;;;;;6.50;5.40;;;;;;;15.60;100.00;96101.15;108954;1271;25412;-82
2023/08/31 06:54:22;;;;;;;6.60;5.80;;;;;;;15.58;100.00;96105.24;108920;1266;24199;-83
2023/08/31 06:56:53;;;;;;;6.00;4.90;;;;;;;15.60;100.00;96108.99;108909;1266;22519;-84
2023/08/31 06:59:25;;;;;;;5.50;4.90;;;;;;;15.60;100.00;96110.98;108838;1271;22536;-83
2023/08/31 07:01:59;;;;;;;6.00;5.30;;;;;;;15.53;100.00;96116.73;108900;1266;22563;-84
2023/08/31 07:04:30;;;;;;;6.00;5.10;;;;;;;15.48;100.00;96114.21;108881;1266;22523;-84
2023/08/31 07:07:05;;;;;;;6.50;5.40;;;;;;;15.48;100.00;96114.40;108903;1267;22508;-83
2023/08/31 07:09:36;;;;;;;6.70;4.90;;;;;;;15.52;100.00;96118.52;108885;1266;23933;-84
2023/08/31 07:12:07;;;;;;;5.20;4.20;;;;;;;15.53;100.00;96115.20;108866;1271;25265;-83
2023/08/31 07:14:39;;;;;;;6.30;4.80;;;;;;;15.55;100.00;96117.73;108882;1269;25412;-84
2023/08/31 07:17:10;;;;;;;6.30;4.80;;;;;;;15.56;100.00;96121.04;108866;1271;25414;-83
2023/08/31 07:19:41;;;;;;;6.00;4.50;;;;;;;15.60;100.00;96123.35;108882;1266;23696;-83
2023/08/31 07:22:12;;;;;;;4.80;4.30;;;;;;;15.62;100.00;96128.02;108893;1271;23288;-83
2023/08/31 07:24:44;;;;;;;4.30;3.80;;;;;;;15.65;100.00;96130.55;108880;1271;22574;-84
2023/08/31 07:27:16;;;;;;;4.10;3.70;;;;;;;15.65;100.00;96135.34;108894;1266;22513;-83
2023/08/31 07:29:47;;;;;;;4.30;3.40;;;;;;;15.62;100.00;96132.48;108979;1263;22501;-84
2023/08/31 07:32:18;;;;;;;4.00;3.60;;;;;;;15.59;100.00;96134.86;108921;1266;22619;-83
2023/08/31 07:34:52;;;;;;;7.80;5.10;;;;;;;15.61;100.00;96134.65;109042;1264;22988;-83
2023/08/31 07:37:28;;;;;;;5.10;4.00;;;;;;;15.67;100.00;96136.05;108951;1267;22518;-84
2023/08/31 07:40:08;;;;;;;7.20;5.10;;;;;;;15.69;100.00;96133.45;108994;1270;22571;-83
2023/08/31 07:42:39;;;;;;;4.60;4.00;;;;;;;15.72;100.00;96137.05;108996;1267;22748;-83
2023/08/31 07:45:13;;;;;;;3.50;3.10;;;;;;;15.79;100.00;96142.74;108889;1269;22655;-81
2023/08/31 07:47:46;;;;;;;3.50;2.90;;;;;;;15.78;100.00;96148.14;109026;1263;51311;-83
2023/08/31 07:50:20;;;;;;;4.40;3.10;;;;;;;15.74;100.00;96151.13;109073;1270;22511;-83
2023/08/31 07:52:51;;;;;;;3.40;3.10;;;;;;;15.76;100.00;96155.17;109031;1267;22544;-80
2023/08/31 07:55:23;;;;;;;3.90;3.20;;;;;;;15.83;100.00;96155.42;108995;1270;22618;-80
2023/08/31 07:57:54;;;;;;;3.20;2.90;;;;;;;15.86;100.00;96156.09;109039;1270;22515;-80
2023/08/31 08:00:28;;;;;;;4.10;3.00;;;;;;;15.90;100.00;96156.61;109021;1270;22539;-80
2023/08/31 08:02:59;;;;;;;4.00;3.40;;;;;;;15.95;100.00;96159.89;109027;1270;22602;-80
2023/08/31 08:05:31;;;;;;;4.50;3.30;;;;;;;16.02;100.00;96156.01;109016;1270;24999;-83
2023/08/31 08:08:03;;;;;;;3.70;3.10;;;;;;;16.08;100.00;96156.48;108988;1270;22634;-82
2023/08/31 08:10:34;;;;;;;3.60;3.10;;;;;;;16.13;100.00;96158.36;108934;1270;22544;-83
2023/08/31 08:13:05;;;;;;;4.40;3.20;;;;;;;16.20;100.00;96161.69;109078;1270;22512;-83
2023/08/31 08:15:36;;;;;;;4.20;3.20;;;;;;;16.25;100.00;96163.30;108942;1270;22521;-83
2023/08/31 08:18:08;;;;;;;3.60;3.30;;;;;;;16.25;100.00;96161.16;108901;1263;26260;-83
2023/08/31 08:20:39;;;;;;;3.50;3.20;;;;;;;16.25;100.00;96162.92;108869;1263;22555;-83
2023/08/31 08:23:10;;;;;;;3.10;2.70;;;;;;;16.28;100.00;96163.11;109026;1264;24302;-83
2023/08/31 08:25:41;;;;;;;3.60;2.80;;;;;;;16.31;100.00;96162.23;109018;1270;22521;-83
2023/08/31 08:28:12;;;;;;;3.70;3.30;;;;;;;16.30;100.00;96166.77;108979;1270;22545;-83
2023/08/31 08:30:44;;;;;;;3.60;2.90;;;;;;;16.32;100.00;96172.84;109036;1266;22541;-82
2023/08/31 08:33:15;;;;;;;3.00;2.70;;;;;;;16.30;100.00;96173.29;109020;1270;22511;-82
2023/08/31 08:35:46;;;;;;;3.40;3.10;;;;;;;16.24;100.00;96173.91;109024;1270;22599;-83
2023/08/31 08:38:22;;;;;;;3.90;3.00;;;;;;;16.18;100.00;96177.78;108981;1270;22559;-84
2023/08/31 08:40:53;;;;;;;3.40;2.80;;;;;;;16.15;100.00;96182.48;108998;1263;22644;-84
2023/08/31 08:43:27;;;;;;;3.50;2.80;;;;;;;16.11;100.00;96186.85;108994;1263;22967;-83
2023/08/31 08:46:04;;;;;;;4.20;2.60;;;;;;;16.11;100.00;96184.62;109066;1270;22596;-83
2023/08/31 08:48:37;;;;;;;2.80;2.50;;;;;;;16.07;100.00;96181.81;108973;1270;22912;-83
2023/08/31 08:51:08;;;;;;;3.80;2.80;;;;;;;16.07;100.00;96185.70;108960;1264;22535;-83
2023/08/31 08:53:42;;;;;;;3.40;2.60;;;;;;;16.06;100.00;96187.74;108951;1263;22543;-82
2023/08/31 08:56:13;;;;;;;3.50;2.40;;;;;;;16.08;100.00;96190.24;108936;1270;25402;-82
2023/08/31 08:58:45;;;;;;;4.10;2.80;;;;;;;16.13;100.00;96191.18;108968;1270;27149;-83
2023/08/31 09:01:23;;;;;;;3.30;2.70;;;;;;;16.15;100.00;96189.67;109041;1270;22650;-84
2023/08/31 09:03:55;;;;;;;3.60;2.60;;;;;;;16.17;100.00;96192.41;109065;1269;22515;-83
2023/08/31 09:06:28;;;;;;;3.60;2.40;;;;;;;16.19;100.00;96196.56;109003;1261;22529;-83
2023/08/31 09:09:00;;;;;;;3.30;2.50;;;;;;;16.20;100.00;96193.33;108985;1268;22617;-83
2023/08/31 09:11:33;;;;;;;3.20;2.90;;;;;;;16.21;100.00;96192.34;108986;1270;22544;-83
2023/08/31 09:14:17;;;;;;;3.90;3.00;;;;;;;16.23;100.00;96190.66;108931;1268;22531;-83
2023/08/31 09:16:51;;;;;;;3.40;3.10;;;;;;;16.29;100.00;96196.63;109048;1270;22515;-84
2023/08/31 09:19:24;;;;;;;4.30;2.60;;;;;;;16.35;100.00;96198.92;109101;1267;23735;-84
2023/08/31 09:21:57;;;;;;;3.10;2.70;;;;;;;16.40;100.00;96197.34;109078;1263;23526;-83
2023/08/31 09:24:29;;;;;;;3.10;2.50;;;;;;;16.43;100.00;96201.72;109189;1270;22530;-84
2023/08/31 09:27:01;;;;;;;3.40;2.40;;;;;;;16.47;100.00;96202.99;109039;1271;22521;-83
2023/08/31 09:29:35;;;;;;;3.80;2.70;;;;;;;16.51;100.00;96204.66;108946;1271;22935;-83
2023/08/31 09:32:07;;;;;;;4.30;2.30;;;;;;;16.56;100.00;96204.05;108953;1271;22544;-83
2023/08/31 09:34:39;;;;;;;3.20;1.90;;;;;;;16.64;100.00;96207.88;108973;1265;24215;-84
2023/08/31 09:37:11;;;;;;;3.00;2.50;;;;;;;16.67;100.00;96210.62;109325;1263;22504;-84
2023/08/31 09:39:44;;;;;;;3.00;2.60;;;;;;;16.67;100.00;96216.29;108920;1269;57625;-83
2023/08/31 09:42:15;;;;;;;2.40;2.20;;;;;;;16.73;100.00;96218.94;108898;1266;23346;-84
2023/08/31 09:44:51;;;;;;;2.30;2.20;;;;;;;16.76;100.00;96223.19;108918;1269;22544;-85
2023/08/31 09:47:25;;;;;;;3.80;2.50;;;;;;;16.82;100.00;96227.38;108895;1270;22567;-83
2023/08/31 09:49:57;;;;;;;2.30;2.10;;;;;;;16.89;100.00;96226.10;108985;1266;22514;-84
2023/08/31 09:52:29;;;;;;;2.70;2.30;;;;;;;16.95;100.00;96226.84;109282;1271;22654;-83
2023/08/31 09:55:04;;;;;;;3.20;2.30;;;;;;;17.02;100.00;96228.70;108888;1271;22511;-83
2023/08/31 09:57:36;;;;;;;4.50;2.40;;;;;;;17.09;99.96;96233.88;108977;1271;23763;-83
2023/08/31 10:00:15;;;;;;;2.40;1.90;;;;;;;17.13;99.45;96230.86;108915;1271;22803;-82
2023/08/31 10:02:50;;;;;;;2.50;2.30;;;;;;;17.15;99.00;96232.14;108945;1269;22519;-82
2023/08/31 10:05:25;;;;;;;2.30;2.10;;;;;;;17.21;98.91;96229.32;108872;1271;22518;-81
2023/08/31 10:07:58;;;;;;;3.30;2.30;;;;;;;17.29;98.79;96233.40;108917;1271;22657;-82
2023/08/31 10:10:30;;;;;;;2.30;2.10;;;;;;;17.35;98.58;96237.20;108926;1269;22537;-82
2023/08/31 10:13:03;;;;;;;3.50;2.20;;;;;;;17.39;97.91;96239.70;109000;1260;23404;-82
2023/08/31 10:15:36;;;;;;;2.20;1.70;;;;;;;17.48;98.06;96243.09;108911;1271;22531;-82
2023/08/31 10:18:08;;;;;;;2.40;1.70;;;;;;;17.51;96.46;96241.35;108979;1270;22976;-82
2023/08/31 10:20:42;;;;;;;3.40;1.50;;;;;;;17.48;95.79;96246.71;108953;1271;22521;-82
2023/08/31 15:21:07;;;;;;;3.40;2.60;;;;;;;18.98;68.80;96345.92;105667;1301;544954;-83
2023/08/31 15:23:40;;;;;;;2.80;1.80;;;;;;;18.54;69.14;96373.70;108606;1276;25314;-83
2023/08/31 15:26:13;;;;;;;3.60;2.60;;;;;;;17.90;71.07;96389.66;108687;1272;22547;-83
2023/08/31 15:28:45;;;;;;;4.00;2.20;;;;;;;17.26;73.10;96395.81;107962;1279;22507;-82
2023/08/31 15:31:24;;;;;;;3.40;2.00;;;;;;;16.78;75.41;96401.55;107885;1275;25424;-82
2023/08/31 15:33:58;;;;;;;5.20;3.10;;;;;;;16.43;76.80;96401.48;107843;1273;411002;-82
2023/08/31 15:36:31;;;;;;;2.80;2.00;;;;;;;16.36;78.34;96402.05;108324;1273;22524;-83
2023/08/31 15:39:08;;;;;;;3.50;1.90;;;;;;;16.26;79.03;96401.48;108463;1269;22966;-83
2023/08/31 15:41:40;;;;;;;2.40;1.60;;;;;;;16.05;80.06;96405.93;108454;1277;22653;-83
2023/08/31 15:44:13;;;;;;;2.40;1.70;;;;;;;15.89;81.17;96405.83;108320;1277;25383;-83
2023/08/31 15:46:50;;;;;;;2.60;1.80;;;;;;;15.72;82.43;96404.72;108347;1277;22524;-83
2023/08/31 15:49:23;;;;;;;2.90;2.10;;;;;;;15.59;83.42;96402.06;108288;1270;22520;-82
2023/08/31 15:51:56;;;;;;;3.60;2.00;;;;;;;15.59;84.10;96406.52;108356;1275;22574;-83
2023/08/31 15:54:32;;;;;;;3.80;2.10;;;;;;;15.60;84.51;96410.71;108379;1275;22511;-83
2023/08/31 15:57:07;;;;;;;2.40;2.10;;;;;;;15.55;85.00;96411.64;108362;1276;22547;-83
2023/08/31 15:59:40;;;;;;;2.50;1.80;;;;;;;15.59;85.38;96408.60;108309;1277;22543;-83
2023/08/31 16:02:15;;;;;;;3.60;2.30;;;;;;;15.59;85.69;96405.70;108475;1276;22535;-83
2023/08/31 16:04:48;;;;;;;2.50;2.00;;;;;;;15.60;86.02;96403.92;108391;1272;22534;-83
2023/08/31 16:07:25;;;;;;;3.70;2.20;;;;;;;15.57;86.11;96407.05;108412;1277;24247;-83
2023/08/31 16:09:57;;;;;;;2.80;2.10;;;;;;;15.51;86.39;96411.40;108438;1277;22759;-83
2023/08/31 16:12:29;;;;;;;4.60;3.00;;;;;;;15.49;87.09;96413.43;108338;1278;22554;-83
2023/08/31 16:15:03;;;;;;;2.50;2.00;;;;;;;15.52;87.19;96415.17;108396;1277;25415;-83
2023/08/31 16:17:36;;;;;;;2.50;2.10;;;;;;;15.53;87.24;96411.24;108407;1269;22520;-82
2023/08/31 16:20:10;;;;;;;3.10;2.30;;;;;;;15.54;87.24;96411.20;108369;1275;22521;-82
2023/08/31 16:22:43;;;;;;;2.70;2.30;;;;;;;15.58;87.66;96409.39;108445;1277;22546;-82
2023/08/31 16:25:17;;;;;;;3.10;2.10;;;;;;;15.58;87.73;96413.36;108454;1270;22524;-82
2023/08/31 16:27:50;;;;;;;2.80;2.10;;;;;;;15.58;87.94;96412.68;108407;1277;25345;-82
2023/08/31 16:30:29;;;;;;;2.10;1.90;;;;;;;15.58;88.19;96411.35;108364;1269;24364;-83
2023/08/31 16:33:02;;;;;;;2.20;2.00;;;;;;;15.61;88.40;96412.77;108781;1272;22522;-82